sensor_id;sensor_type;location;lat;lon;timestamp;pressure;altitude;pressure_sealevel;temperature;humidity
72921;BME280;61064;51.654;5.476;2022-07-18T00:00:05;102428.59;;;18.67;55.43
72921;BME280;61064;51.654;5.476;2022-07-18T00:02:32;102425.94;;;18.60;55.46
72921;BME280;61064;51.654;5.476;2022-07-18T00:04:57;102424.13;;;18.62;55.53
72921;BME280;61064;51.654;5.476;2022-07-18T00:07:23;102432.22;;;18.60;55.65
72921;BME280;61064;51.654;5.476;2022-07-18T00:09:48;102416.06;;;18.54;55.64
72921;BME280;61064;51.654;5.476;2022-07-18T00:12:13;102418.72;;;18.50;55.83
72921;BME280;61064;51.654;5.476;2022-07-18T00:14:39;102418.72;;;18.50;55.93
72921;BME280;61064;51.654;5.476;2022-07-18T00:17:06;102425.00;;;18.50;55.99
72921;BME280;61064;51.654;5.476;2022-07-18T00:19:31;102407.97;;;18.44;56.04
72921;BME280;61064;51.654;5.476;2022-07-18T00:21:57;102416.03;;;18.42;56.28
72921;BME280;61064;51.654;5.476;2022-07-18T00:24:22;102408.84;;;18.40;56.26
72921;BME280;61064;51.654;5.476;2022-07-18T00:26:48;102407.97;;;18.38;56.43
72921;BME280;61064;51.654;5.476;2022-07-18T00:29:13;102395.38;;;18.24;56.47
72921;BME280;61064;51.654;5.476;2022-07-18T00:31:39;102400.78;;;18.24;56.56
72921;BME280;61064;51.654;5.476;2022-07-18T00:34:04;102405.25;;;18.25;56.54
72921;BME280;61064;51.654;5.476;2022-07-18T00:36:30;102408.88;;;18.27;56.80
72921;BME280;61064;51.654;5.476;2022-07-18T00:38:57;102405.25;;;18.24;56.98
72921;BME280;61064;51.654;5.476;2022-07-18T00:41:22;102407.97;;;18.16;57.17
72921;BME280;61064;51.654;5.476;2022-07-18T00:43:51;102397.16;;;18.07;57.40
72921;BME280;61064;51.654;5.476;2022-07-18T00:46:21;102404.34;;;18.07;57.48
72921;BME280;61064;51.654;5.476;2022-07-18T00:48:47;102392.69;;;18.02;57.73
72921;BME280;61064;51.654;5.476;2022-07-18T00:51:13;102393.56;;;18.01;57.88
72921;BME280;61064;51.654;5.476;2022-07-18T00:53:40;102390.91;;;17.99;57.77
72921;BME280;61064;51.654;5.476;2022-07-18T00:56:05;102391.78;;;18.01;57.86
72921;BME280;61064;51.654;5.476;2022-07-18T00:58:31;102391.78;;;17.95;57.85
72921;BME280;61064;51.654;5.476;2022-07-18T01:00:57;102363.06;;;17.82;58.12
72921;BME280;61064;51.654;5.476;2022-07-18T01:03:41;102391.78;;;17.98;57.79
72921;BME280;61064;51.654;5.476;2022-07-18T01:06:07;102387.28;;;17.96;57.97
72921;BME280;61064;51.654;5.476;2022-07-18T01:08:33;102391.75;;;17.89;58.20
72921;BME280;61064;51.654;5.476;2022-07-18T01:11:00;102381.03;;;17.83;58.39
72921;BME280;61064;51.654;5.476;2022-07-18T01:13:25;102379.19;;;17.79;58.29
72921;BME280;61064;51.654;5.476;2022-07-18T01:15:51;102382.78;;;17.75;58.44
72921;BME280;61064;51.654;5.476;2022-07-18T01:18:16;102384.59;;;17.71;58.62
72921;BME280;61064;51.654;5.476;2022-07-18T01:20:41;102363.88;;;17.58;58.72
72921;BME280;61064;51.654;5.476;2022-07-18T01:23:07;102365.69;;;17.58;58.64
72921;BME280;61064;51.654;5.476;2022-07-18T01:25:33;102368.38;;;17.59;58.62
72921;BME280;61064;51.654;5.476;2022-07-18T01:27:58;102374.69;;;17.61;58.84
72921;BME280;61064;51.654;5.476;2022-07-18T01:30:25;102359.41;;;17.54;58.88
72921;BME280;61064;51.654;5.476;2022-07-18T01:32:59;102380.97;;;17.60;59.00
72921;BME280;61064;51.654;5.476;2022-07-18T01:35:26;102362.06;;;17.51;59.06
72921;BME280;61064;51.654;5.476;2022-07-18T01:37:53;102372.84;;;17.56;59.09
72921;BME280;61064;51.654;5.476;2022-07-18T01:40:19;102366.56;;;17.51;59.13
72921;BME280;61064;51.654;5.476;2022-07-18T01:42:45;102360.28;;;17.42;59.37
72921;BME280;61064;51.654;5.476;2022-07-18T01:45:10;102376.44;;;17.44;59.34
72921;BME280;61064;51.654;5.476;2022-07-18T01:47:36;102362.91;;;17.30;59.57
72921;BME280;61064;51.654;5.476;2022-07-18T01:50:02;102368.31;;;17.35;59.72
72921;BME280;61064;51.654;5.476;2022-07-18T01:52:28;102369.19;;;17.28;59.65
72921;BME280;61064;51.654;5.476;2022-07-18T01:54:53;102369.19;;;17.28;59.93
72921;BME280;61064;51.654;5.476;2022-07-18T01:57:19;102371.00;;;17.27;59.81
72921;BME280;61064;51.654;5.476;2022-07-18T01:59:44;102371.84;;;17.23;59.84
72921;BME280;61064;51.654;5.476;2022-07-18T02:02:09;102372.75;;;17.19;59.89
72921;BME280;61064;51.654;5.476;2022-07-18T02:04:35;102373.63;;;17.17;60.34
72921;BME280;61064;51.654;5.476;2022-07-18T02:07:19;102363.78;;;17.14;59.98
72921;BME280;61064;51.654;5.476;2022-07-18T02:09:44;102370.03;;;17.12;60.41
72921;BME280;61064;51.654;5.476;2022-07-18T02:12:10;102358.38;;;17.05;60.59
72921;BME280;61064;51.654;5.476;2022-07-18T02:14:35;102365.53;;;17.03;60.88
72921;BME280;61064;51.654;5.476;2022-07-18T02:17:00;102344.84;;;16.94;60.81
72921;BME280;61064;51.654;5.476;2022-07-18T02:19:26;102343.06;;;16.95;60.85
72921;BME280;61064;51.654;5.476;2022-07-18T02:21:51;102344.88;;;16.97;60.72
72921;BME280;61064;51.654;5.476;2022-07-18T02:24:17;102337.69;;;16.95;61.07
72921;BME280;61064;51.654;5.476;2022-07-18T02:26:44;102333.19;;;16.91;60.87
72921;BME280;61064;51.654;5.476;2022-07-18T02:29:10;102357.44;;;16.94;61.06
72921;BME280;61064;51.654;5.476;2022-07-18T02:31:35;102345.75;;;16.90;60.74
72921;BME280;61064;51.654;5.476;2022-07-18T02:34:00;102350.22;;;16.87;60.98
72921;BME280;61064;51.654;5.476;2022-07-18T02:36:26;102341.25;;;16.86;60.95
72921;BME280;61064;51.654;5.476;2022-07-18T02:38:51;102344.84;;;16.87;60.91
72921;BME280;61064;51.654;5.476;2022-07-18T02:41:16;102334.06;;;16.81;61.12
72921;BME280;61064;51.654;5.476;2022-07-18T02:43:42;102342.09;;;16.78;61.13
72921;BME280;61064;51.654;5.476;2022-07-18T02:46:08;102336.72;;;16.76;61.38
72921;BME280;61064;51.654;5.476;2022-07-18T02:48:33;102334.91;;;16.71;61.07
72921;BME280;61064;51.654;5.476;2022-07-18T02:50:59;102351.97;;;16.77;61.17
72921;BME280;61064;51.654;5.476;2022-07-18T02:53:24;102344.78;;;16.72;61.30
72921;BME280;61064;51.654;5.476;2022-07-18T02:55:50;102350.13;;;16.70;61.35
72921;BME280;61064;51.654;5.476;2022-07-18T02:58:16;102337.56;;;16.68;61.39
72921;BME280;61064;51.654;5.476;2022-07-18T03:00:42;102337.56;;;16.65;61.42
72921;BME280;61064;51.654;5.476;2022-07-18T03:03:08;102319.63;;;16.67;61.49
72921;BME280;61064;51.654;5.476;2022-07-18T03:05:34;102330.38;;;16.67;61.29
72921;BME280;61064;51.654;5.476;2022-07-18T03:07:59;102331.31;;;16.66;61.33
72921;BME280;61064;51.654;5.476;2022-07-18T03:10:25;102334.00;;;16.69;61.35
72921;BME280;61064;51.654;5.476;2022-07-18T03:12:50;102329.47;;;16.63;61.33
72921;BME280;61064;51.654;5.476;2022-07-18T03:15:16;102330.38;;;16.63;61.21
72921;BME280;61064;51.654;5.476;2022-07-18T03:17:41;102327.72;;;16.65;61.47
72921;BME280;61064;51.654;5.476;2022-07-18T03:20:07;102317.84;;;16.59;61.58
72921;BME280;61064;51.654;5.476;2022-07-18T03:22:32;102310.59;;;16.55;61.53
72921;BME280;61064;51.654;5.476;2022-07-18T03:24:58;102329.44;;;16.58;61.56
72921;BME280;61064;51.654;5.476;2022-07-18T03:27:24;102317.75;;;16.53;61.55
72921;BME280;61064;51.654;5.476;2022-07-18T03:29:49;102323.16;;;16.58;61.72
72921;BME280;61064;51.654;5.476;2022-07-18T03:32:15;102324.03;;;16.55;62.00
72921;BME280;61064;51.654;5.476;2022-07-18T03:34:40;102322.22;;;16.48;61.92
72921;BME280;61064;51.654;5.476;2022-07-18T03:37:06;102320.38;;;16.43;62.01
72921;BME280;61064;51.654;5.476;2022-07-18T03:39:31;102310.50;;;16.37;61.97
72921;BME280;61064;51.654;5.476;2022-07-18T03:41:56;102305.13;;;16.37;62.25
72921;BME280;61064;51.654;5.476;2022-07-18T03:44:22;102307.78;;;16.34;62.25
72921;BME280;61064;51.654;5.476;2022-07-18T03:46:49;102308.69;;;16.32;62.20
72921;BME280;61064;51.654;5.476;2022-07-18T03:49:16;102315.88;;;16.37;62.28
72921;BME280;61064;51.654;5.476;2022-07-18T03:51:42;102312.28;;;16.32;62.27
72921;BME280;61064;51.654;5.476;2022-07-18T03:54:07;102305.97;;;16.29;62.15
72921;BME280;61064;51.654;5.476;2022-07-18T03:56:34;102312.22;;;16.29;62.52
72921;BME280;61064;51.654;5.476;2022-07-18T03:59:00;102296.97;;;16.23;62.43
72921;BME280;61064;51.654;5.476;2022-07-18T04:01:25;102283.50;;;16.14;62.47
72921;BME280;61064;51.654;5.476;2022-07-18T04:03:50;102302.31;;;16.22;62.36
72921;BME280;61064;51.654;5.476;2022-07-18T04:06:16;102301.44;;;16.20;62.40
72921;BME280;61064;51.654;5.476;2022-07-18T04:08:42;102302.31;;;16.22;62.40
72921;BME280;61064;51.654;5.476;2022-07-18T04:11:08;102301.47;;;16.25;62.42
72921;BME280;61064;51.654;5.476;2022-07-18T04:13:33;102271.88;;;16.18;62.31
72921;BME280;61064;51.654;5.476;2022-07-18T04:15:59;102301.50;;;16.34;62.47
72921;BME280;61064;51.654;5.476;2022-07-18T04:18:24;102297.94;;;16.32;62.23
72921;BME280;61064;51.654;5.476;2022-07-18T04:20:49;102301.53;;;16.32;62.47
72921;BME280;61064;51.654;5.476;2022-07-18T04:23:16;102307.81;;;16.36;62.17
72921;BME280;61064;51.654;5.476;2022-07-18T04:25:42;102303.34;;;16.38;62.27
72921;BME280;61064;51.654;5.476;2022-07-18T04:28:09;102288.09;;;16.34;62.33
72921;BME280;61064;51.654;5.476;2022-07-18T04:30:36;102285.44;;;16.37;62.09
72921;BME280;61064;51.654;5.476;2022-07-18T04:33:03;102291.69;;;16.37;62.30
72921;BME280;61064;51.654;5.476;2022-07-18T04:35:31;102286.28;;;16.31;62.08
72921;BME280;61064;51.654;5.476;2022-07-18T04:37:56;102280.94;;;16.36;62.11
72921;BME280;61064;51.654;5.476;2022-07-18T04:40:22;102290.81;;;16.37;62.16
72921;BME280;61064;51.654;5.476;2022-07-18T04:42:48;102280.03;;;16.34;62.12
72921;BME280;61064;51.654;5.476;2022-07-18T04:45:14;102289.00;;;16.37;62.02
72921;BME280;61064;51.654;5.476;2022-07-18T04:47:41;102286.31;;;16.39;62.02
72921;BME280;61064;51.654;5.476;2022-07-18T04:50:07;102290.81;;;16.38;62.04
72921;BME280;61064;51.654;5.476;2022-07-18T04:52:41;102283.63;;;16.39;62.07
72921;BME280;61064;51.654;5.476;2022-07-18T04:55:08;102269.28;;;16.34;61.88
72921;BME280;61064;51.654;5.476;2022-07-18T04:57:34;102280.97;;;16.42;61.90
72921;BME280;61064;51.654;5.476;2022-07-18T05:00:02;102275.63;;;16.43;61.95
72921;BME280;61064;51.654;5.476;2022-07-18T05:02:28;102282.78;;;16.46;62.01
72921;BME280;61064;51.654;5.476;2022-07-18T05:04:53;102281.88;;;16.45;61.84
72921;BME280;61064;51.654;5.476;2022-07-18T05:07:18;102272.94;;;16.43;61.75
72921;BME280;61064;51.654;5.476;2022-07-18T05:09:44;102274.69;;;16.44;61.67
72921;BME280;61064;51.654;5.476;2022-07-18T05:12:09;102281.03;;;16.55;61.59
72921;BME280;61064;51.654;5.476;2022-07-18T05:14:35;102280.16;;;16.56;61.58
72921;BME280;61064;51.654;5.476;2022-07-18T05:17:00;102260.44;;;16.53;61.57
72921;BME280;61064;51.654;5.476;2022-07-18T05:19:25;102273.94;;;16.63;61.50
72921;BME280;61064;51.654;5.476;2022-07-18T05:21:51;102274.88;;;16.69;61.39
72921;BME280;61064;51.654;5.476;2022-07-18T05:24:16;102279.34;;;16.73;61.45
72921;BME280;61064;51.654;5.476;2022-07-18T05:26:42;102280.31;;;16.85;61.24
72921;BME280;61064;51.654;5.476;2022-07-18T05:29:07;102280.34;;;16.88;61.22
72921;BME280;61064;51.654;5.476;2022-07-18T05:31:33;102275.84;;;16.95;61.17
72921;BME280;61064;51.654;5.476;2022-07-18T05:33:58;102280.38;;;17.10;61.17
72921;BME280;61064;51.654;5.476;2022-07-18T05:36:24;102268.72;;;17.17;60.63
72921;BME280;61064;51.654;5.476;2022-07-18T05:38:49;102277.72;;;17.31;60.44
72921;BME280;61064;51.654;5.476;2022-07-18T05:41:14;102280.44;;;17.41;60.09
72921;BME280;61064;51.654;5.476;2022-07-18T05:43:40;102288.56;;;17.63;59.65
72921;BME280;61064;51.654;5.476;2022-07-18T05:46:05;102292.16;;;17.80;59.51
72921;BME280;61064;51.654;5.476;2022-07-18T05:48:31;102279.59;;;17.93;59.33
72921;BME280;61064;51.654;5.476;2022-07-18T05:50:56;102262.53;;;18.00;59.13
72921;BME280;61064;51.654;5.476;2022-07-18T05:53:21;102278.59;;;18.28;58.92
72921;BME280;61064;51.654;5.476;2022-07-18T05:55:47;102291.13;;;18.51;58.45
72921;BME280;61064;51.654;5.476;2022-07-18T05:58:12;102292.91;;;18.70;58.13
72921;BME280;61064;51.654;5.476;2022-07-18T06:00:37;102291.03;;;18.84;57.86
72921;BME280;61064;51.654;5.476;2022-07-18T06:03:03;102284.72;;;18.93;57.74
72921;BME280;61064;51.654;5.476;2022-07-18T06:05:28;102278.31;;;19.06;57.73
72921;BME280;61064;51.654;5.476;2022-07-18T06:07:54;102261.19;;;19.15;57.33
72921;BME280;61064;51.654;5.476;2022-07-18T06:10:21;102288.91;;;19.44;57.37
72921;BME280;61064;51.654;5.476;2022-07-18T06:12:46;102260.94;;;19.56;57.41
72921;BME280;61064;51.654;5.476;2022-07-18T06:15:12;102258.91;;;19.80;57.10
72921;BME280;61064;51.654;5.476;2022-07-18T06:17:38;102273.09;;;20.05;56.48
72921;BME280;61064;51.654;5.476;2022-07-18T06:20:04;102273.78;;;20.24;56.29
72921;BME280;61064;51.654;5.476;2022-07-18T06:22:30;102269.06;;;20.47;55.56
72921;BME280;61064;51.654;5.476;2022-07-18T06:24:56;102260.72;;;20.64;54.99
72921;BME280;61064;51.654;5.476;2022-07-18T06:27:21;102258.72;;;20.80;54.95
72921;BME280;61064;51.654;5.476;2022-07-18T06:29:47;102261.19;;;20.96;54.97
72921;BME280;61064;51.654;5.476;2022-07-18T06:32:12;102252.84;;;21.13;54.51
72921;BME280;61064;51.654;5.476;2022-07-18T06:34:37;102240.88;;;21.29;54.47
72921;BME280;61064;51.654;5.476;2022-07-18T06:37:03;102232.47;;;21.47;53.94
72921;BME280;61064;51.654;5.476;2022-07-18T06:39:28;102243.81;;;21.71;53.76
72921;BME280;61064;51.654;5.476;2022-07-18T06:41:53;102233.63;;;21.85;52.95
72921;BME280;61064;51.654;5.476;2022-07-18T06:44:19;102230.72;;;21.97;52.75
72921;BME280;61064;51.654;5.476;2022-07-18T06:46:44;102230.59;;;22.03;52.69
72921;BME280;61064;51.654;5.476;2022-07-18T06:49:09;102232.09;;;22.21;52.73
72921;BME280;61064;51.654;5.476;2022-07-18T06:51:35;102231.88;;;22.30;52.31
72921;BME280;61064;51.654;5.476;2022-07-18T06:54:00;102227.25;;;22.35;51.89
72921;BME280;61064;51.654;5.476;2022-07-18T06:56:25;102236.00;;;22.51;51.60
72921;BME280;61064;51.654;5.476;2022-07-18T06:58:51;102243.91;;;22.61;51.38
72921;BME280;61064;51.654;5.476;2022-07-18T07:01:19;102230.16;;;22.72;51.07
72921;BME280;61064;51.654;5.476;2022-07-18T07:03:46;102238.91;;;22.85;50.77
72921;BME280;61064;51.654;5.476;2022-07-18T07:06:12;102241.31;;;22.97;50.44
72921;BME280;61064;51.654;5.476;2022-07-18T07:08:38;102234.97;;;22.99;50.18
72921;BME280;61064;51.654;5.476;2022-07-18T07:11:04;102245.31;;;23.20;50.37
72921;BME280;61064;51.654;5.476;2022-07-18T07:13:29;102241.28;;;23.37;50.19
72921;BME280;61064;51.654;5.476;2022-07-18T07:15:55;102240.91;;;23.53;49.89
72921;BME280;61064;51.654;5.476;2022-07-18T07:18:20;102247.84;;;23.65;49.43
72921;BME280;61064;51.654;5.476;2022-07-18T07:20:46;102248.50;;;23.75;48.92
72921;BME280;61064;51.654;5.476;2022-07-18T07:23:12;102239.16;;;23.86;49.04
72921;BME280;61064;51.654;5.476;2022-07-18T07:25:37;102242.28;;;24.05;48.90
72921;BME280;61064;51.654;5.476;2022-07-18T07:28:04;102240.94;;;24.21;48.78
72921;BME280;61064;51.654;5.476;2022-07-18T07:30:30;102239.69;;;24.34;48.70
72921;BME280;61064;51.654;5.476;2022-07-18T07:32:55;102234.69;;;24.50;48.23
72921;BME280;61064;51.654;5.476;2022-07-18T07:35:22;102232.19;;;24.72;47.47
72921;BME280;61064;51.654;5.476;2022-07-18T07:37:51;102233.53;;;24.88;47.24
72921;BME280;61064;51.654;5.476;2022-07-18T07:40:17;102226.78;;;25.01;46.95
72921;BME280;61064;51.654;5.476;2022-07-18T07:42:43;102239.88;;;25.18;46.68
72921;BME280;61064;51.654;5.476;2022-07-18T07:45:08;102225.78;;;25.32;45.98
72921;BME280;61064;51.654;5.476;2022-07-18T07:47:35;102220.66;;;25.49;45.84
72921;BME280;61064;51.654;5.476;2022-07-18T07:50:01;102224.66;;;25.66;45.45
72921;BME280;61064;51.654;5.476;2022-07-18T07:52:26;102216.94;;;25.79;45.21
72921;BME280;61064;51.654;5.476;2022-07-18T07:54:53;102185.97;;;25.80;44.92
72921;BME280;61064;51.654;5.476;2022-07-18T07:57:18;102201.63;;;26.00;44.74
72921;BME280;61064;51.654;5.476;2022-07-18T07:59:44;102187.88;;;26.03;44.81
72921;BME280;61064;51.654;5.476;2022-07-18T08:02:09;102198.13;;;26.21;44.96
72921;BME280;61064;51.654;5.476;2022-07-18T08:04:35;102192.19;;;26.35;44.59
72921;BME280;61064;51.654;5.476;2022-07-18T08:07:00;102175.50;;;26.42;44.41
72921;BME280;61064;51.654;5.476;2022-07-18T08:09:26;102181.28;;;26.58;44.23
72921;BME280;61064;51.654;5.476;2022-07-18T08:11:51;102178.47;;;26.60;44.39
72921;BME280;61064;51.654;5.476;2022-07-18T08:14:17;102181.44;;;26.77;44.44
72921;BME280;61064;51.654;5.476;2022-07-18T08:16:42;102195.38;;;26.93;43.97
72921;BME280;61064;51.654;5.476;2022-07-18T08:19:07;102191.38;;;27.03;43.77
72921;BME280;61064;51.654;5.476;2022-07-18T08:21:33;102191.66;;;27.17;43.30
72921;BME280;61064;51.654;5.476;2022-07-18T08:23:58;102189.38;;;27.28;42.87
72921;BME280;61064;51.654;5.476;2022-07-18T08:26:23;102204.13;;;27.46;42.67
72921;BME280;61064;51.654;5.476;2022-07-18T08:28:49;102205.97;;;27.67;42.32
72921;BME280;61064;51.654;5.476;2022-07-18T08:31:15;102207.91;;;27.85;42.01
72921;BME280;61064;51.654;5.476;2022-07-18T08:33:42;102199.63;;;28.07;41.21
72921;BME280;61064;51.654;5.476;2022-07-18T08:36:07;102198.00;;;28.23;40.66
72921;BME280;61064;51.654;5.476;2022-07-18T08:38:33;102161.47;;;28.24;40.47
72921;BME280;61064;51.654;5.476;2022-07-18T08:41:00;102201.69;;;28.61;40.08
72921;BME280;61064;51.654;5.476;2022-07-18T08:43:25;102181.09;;;28.73;40.30
72921;BME280;61064;51.654;5.476;2022-07-18T08:45:55;102188.25;;;28.94;39.55
72921;BME280;61064;51.654;5.476;2022-07-18T08:48:23;102202.84;;;29.13;38.95
72921;BME280;61064;51.654;5.476;2022-07-18T08:50:49;102188.06;;;29.16;38.98
72921;BME280;61064;51.654;5.476;2022-07-18T08:53:16;102184.00;;;29.24;37.83
72921;BME280;61064;51.654;5.476;2022-07-18T08:55:43;102192.59;;;29.36;37.98
72921;BME280;61064;51.654;5.476;2022-07-18T08:58:08;102194.06;;;29.43;37.63
72921;BME280;61064;51.654;5.476;2022-07-18T09:00:35;102187.06;;;29.54;37.91
72921;BME280;61064;51.654;5.476;2022-07-18T09:03:02;102179.97;;;29.67;37.45
72921;BME280;61064;51.654;5.476;2022-07-18T09:05:29;102176.50;;;29.81;36.71
72921;BME280;61064;51.654;5.476;2022-07-18T09:08:11;102197.25;;;29.87;36.45
72921;BME280;61064;51.654;5.476;2022-07-18T09:10:47;102195.25;;;29.90;36.26
72921;BME280;61064;51.654;5.476;2022-07-18T09:13:13;102185.97;;;29.93;35.89
72921;BME280;61064;51.654;5.476;2022-07-18T09:15:58;102180.88;;;30.02;36.26
72921;BME280;61064;51.654;5.476;2022-07-18T09:21:00;102182.47;;;30.24;35.23
72921;BME280;61064;51.654;5.476;2022-07-18T09:23:31;102198.09;;;30.39;35.57
72921;BME280;61064;51.654;5.476;2022-07-18T09:25:57;102178.41;;;30.48;35.20
72921;BME280;61064;51.654;5.476;2022-07-18T09:28:22;102180.91;;;30.52;34.78
72921;BME280;61064;51.654;5.476;2022-07-18T09:30:48;102192.31;;;30.61;34.21
72921;BME280;61064;51.654;5.476;2022-07-18T09:33:13;102190.75;;;30.72;33.77
72921;BME280;61064;51.654;5.476;2022-07-18T09:35:44;102193.34;;;30.91;34.11
72921;BME280;61064;51.654;5.476;2022-07-18T09:38:11;102182.88;;;30.97;33.83
72921;BME280;61064;51.654;5.476;2022-07-18T09:40:39;102188.94;;;31.04;33.76
72921;BME280;61064;51.654;5.476;2022-07-18T09:43:08;102187.44;;;31.14;33.70
72921;BME280;61064;51.654;5.476;2022-07-18T09:45:35;102187.59;;;31.27;33.59
72921;BME280;61064;51.654;5.476;2022-07-18T09:48:06;102181.38;;;31.39;33.30
72921;BME280;61064;51.654;5.476;2022-07-18T09:50:37;102179.31;;;31.58;33.39
72921;BME280;61064;51.654;5.476;2022-07-18T09:53:06;102172.59;;;31.78;32.62
72921;BME280;61064;51.654;5.476;2022-07-18T09:55:32;102181.28;;;31.86;32.73
72921;BME280;61064;51.654;5.476;2022-07-18T09:58:03;102176.38;;;31.91;32.08
72921;BME280;61064;51.654;5.476;2022-07-18T10:00:31;102176.47;;;31.90;32.21
72921;BME280;61064;51.654;5.476;2022-07-18T10:02:58;102172.03;;;31.87;31.98
72921;BME280;61064;51.654;5.476;2022-07-18T10:05:26;102174.69;;;31.89;31.74
72921;BME280;61064;51.654;5.476;2022-07-18T10:07:52;102177.94;;;31.95;31.68
72921;BME280;61064;51.654;5.476;2022-07-18T10:10:18;102168.72;;;31.96;31.74
72921;BME280;61064;51.654;5.476;2022-07-18T10:12:43;102160.16;;;32.01;32.01
72921;BME280;61064;51.654;5.476;2022-07-18T10:15:09;102173.88;;;32.16;31.78
72921;BME280;61064;51.654;5.476;2022-07-18T10:17:35;102168.69;;;32.26;31.65
72921;BME280;61064;51.654;5.476;2022-07-18T10:20:05;102174.09;;;32.42;31.20
72921;BME280;61064;51.654;5.476;2022-07-18T10:22:37;102159.94;;;32.48;30.84
72921;BME280;61064;51.654;5.476;2022-07-18T10:25:05;102164.75;;;32.58;30.65
72921;BME280;61064;51.654;5.476;2022-07-18T10:27:48;102160.28;;;32.56;31.08
72921;BME280;61064;51.654;5.476;2022-07-18T10:30:14;102160.78;;;32.63;30.70
72921;BME280;61064;51.654;5.476;2022-07-18T10:32:40;102171.84;;;32.77;30.37
72921;BME280;61064;51.654;5.476;2022-07-18T10:35:06;102176.75;;;32.86;30.37
72921;BME280;61064;51.654;5.476;2022-07-18T10:37:32;102169.06;;;32.91;30.57
72921;BME280;61064;51.654;5.476;2022-07-18T10:40:22;102163.22;;;32.95;30.88
72921;BME280;61064;51.654;5.476;2022-07-18T10:45:52;102158.19;;;33.02;30.46
72921;BME280;61064;51.654;5.476;2022-07-18T10:51:09;102148.94;;;33.03;29.67
72921;BME280;61064;51.654;5.476;2022-07-18T10:58:57;102156.22;;;33.04;29.79
72921;BME280;61064;51.654;5.476;2022-07-18T11:01:23;102160.53;;;33.08;29.47
72921;BME280;61064;51.654;5.476;2022-07-18T11:03:49;102144.09;;;33.07;29.64
72921;BME280;61064;51.654;5.476;2022-07-18T11:06:15;102153.44;;;33.18;30.20
72921;BME280;61064;51.654;5.476;2022-07-18T11:08:41;102131.03;;;33.23;30.36
72921;BME280;61064;51.654;5.476;2022-07-18T11:11:09;102138.97;;;33.41;30.20
72921;BME280;61064;51.654;5.476;2022-07-18T11:13:43;102147.16;;;33.56;29.76
72921;BME280;61064;51.654;5.476;2022-07-18T11:16:23;102141.00;;;33.65;29.63
72921;BME280;61064;51.654;5.476;2022-07-18T11:21:23;102144.50;;;33.81;29.39
72921;BME280;61064;51.654;5.476;2022-07-18T11:23:51;102146.91;;;33.86;29.48
72921;BME280;61064;51.654;5.476;2022-07-18T11:26:18;102138.19;;;33.92;28.99
72921;BME280;61064;51.654;5.476;2022-07-18T11:28:45;102122.63;;;33.91;28.68
72921;BME280;61064;51.654;5.476;2022-07-18T11:31:11;102135.88;;;33.98;29.05
72921;BME280;61064;51.654;5.476;2022-07-18T11:33:40;102125.59;;;34.00;29.36
72921;BME280;61064;51.654;5.476;2022-07-18T11:36:07;102122.19;;;34.09;29.38
72921;BME280;61064;51.654;5.476;2022-07-18T11:38:57;102129.00;;;34.16;29.41
72921;BME280;61064;51.654;5.476;2022-07-18T11:41:23;102121.00;;;34.26;29.27
72921;BME280;61064;51.654;5.476;2022-07-18T11:43:50;102128.25;;;34.40;28.84
72921;BME280;61064;51.654;5.476;2022-07-18T11:46:19;102128.50;;;34.49;29.10
72921;BME280;61064;51.654;5.476;2022-07-18T11:48:47;102124.50;;;34.53;28.43
72921;BME280;61064;51.654;5.476;2022-07-18T11:51:14;102121.63;;;34.55;28.09
72921;BME280;61064;51.654;5.476;2022-07-18T11:53:44;102121.81;;;34.52;28.65
72921;BME280;61064;51.654;5.476;2022-07-18T11:56:09;102111.31;;;34.57;28.19
72921;BME280;61064;51.654;5.476;2022-07-18T11:58:36;102113.84;;;34.73;28.53
72921;BME280;61064;51.654;5.476;2022-07-18T12:01:03;102100.44;;;34.79;28.39
72921;BME280;61064;51.654;5.476;2022-07-18T12:03:29;102111.56;;;34.90;27.78
72921;BME280;61064;51.654;5.476;2022-07-18T12:05:54;102104.72;;;34.83;27.08
72921;BME280;61064;51.654;5.476;2022-07-18T12:08:39;102105.97;;;34.79;27.23
72921;BME280;61064;51.654;5.476;2022-07-18T12:11:10;102104.88;;;34.82;27.07
72921;BME280;61064;51.654;5.476;2022-07-18T12:16:30;102104.72;;;34.83;26.64
72921;BME280;61064;51.654;5.476;2022-07-18T12:18:59;102096.44;;;34.83;26.21
72921;BME280;61064;51.654;5.476;2022-07-18T12:21:41;102094.16;;;34.77;26.38
72921;BME280;61064;51.654;5.476;2022-07-18T12:26:48;102066.72;;;34.61;26.41
72921;BME280;61064;51.654;5.476;2022-07-18T12:29:13;102081.31;;;34.76;26.57
72921;BME280;61064;51.654;5.476;2022-07-18T12:31:41;102084.16;;;34.87;26.96
72921;BME280;61064;51.654;5.476;2022-07-18T12:34:12;102086.22;;;34.96;26.46
72921;BME280;61064;51.654;5.476;2022-07-18T12:36:52;102082.91;;;34.91;25.97
72921;BME280;61064;51.654;5.476;2022-07-18T12:39:28;102088.09;;;34.96;26.14
72921;BME280;61064;51.654;5.476;2022-07-18T12:41:54;102084.50;;;35.07;26.26
72921;BME280;61064;51.654;5.476;2022-07-18T12:44:20;102080.09;;;35.04;26.30
72921;BME280;61064;51.654;5.476;2022-07-18T12:46:45;102071.19;;;35.12;26.27
72921;BME280;61064;51.654;5.476;2022-07-18T12:49:11;102065.53;;;35.13;26.51
72921;BME280;61064;51.654;5.476;2022-07-18T12:51:36;102079.34;;;35.26;26.68
72921;BME280;61064;51.654;5.476;2022-07-18T12:54:02;102072.81;;;35.27;26.82
72921;BME280;61064;51.654;5.476;2022-07-18T12:56:27;102069.78;;;35.30;26.74
72921;BME280;61064;51.654;5.476;2022-07-18T12:58:52;102076.63;;;35.37;26.60
72921;BME280;61064;51.654;5.476;2022-07-18T13:01:18;102059.72;;;35.29;26.84
72921;BME280;61064;51.654;5.476;2022-07-18T13:03:43;102051.00;;;35.22;26.53
72921;BME280;61064;51.654;5.476;2022-07-18T13:06:09;102060.53;;;35.18;26.67
72921;BME280;61064;51.654;5.476;2022-07-18T13:08:34;102045.38;;;35.11;26.82